NEODyS-2

Near Earth Objects - Dynamic Site
NEODyS ∴ Observatories ∴ Site 691 ∴ Obs & residuals
Contact »
691  ▹ 
OBSERVATIONS AND RESIDUALS

691-Steward Observatory, Kitt Peak-Spacewatch

Detections | Residuals | Detections & Residuals

[1-200] [201-400] [401-600] [601-800] [801-1000] [1001-1200] [1201-1400] [1401-1600] [1601-1800] [1801-2000] [2001-2200] [2201-2400] [2401-2600] [2601-2800] [2801-3000] [3001-3200] [3201-3400] [3401-3600] [3601-3800] [3801-4000] [4001-4200] [4201-4400] [4401-4600] [4601-4800] [4801-5000] [5001-5200] [5201-5400] [5401-5600] [5601-5800] [5801-6000] [6001-6200] [6201-6400] [6401-6600] [6601-6800] [6801-7000] [7001-7200] [7201-7400] [7401-7600] [7601-7800] [7801-8000] [8001-8200] [8201-8400] [8401-8600] [8601-8800] [8801-9000] [9001-9200] [9201-9400] [9401-9600] [9601-9800] [9801-10000] [10001-10200] [10201-10400] [10401-10600] [10601-10800] [10801-11000] [11001-11200] [11201-11400] [11401-11600] [11601-11800] [11801-12000] [12001-12200] [12201-12400] [12401-12600] [12601-12800] [12801-13000] [13001-13200] [13201-13400] [13401-13600] [13601-13800] [13801-14000] [14001-14200] [14201-14400] [14401-14600] [14601-14800] [14801-15000] [15001-15200] [15201-15400] [15401-15600] [15601-15800] [15801-16000] [16001-16200] [16201-16400] [16401-16600] [16601-16800] [16801-17000] [17001-17200] [17201-17400] [17401-17600] [17601-17800] [17801-18000] [18001-18200] [18201-18400] [18401-18600] [18601-18800] [18801-19000] [19001-19200] [19201-19400] [19401-19600] [19601-19800] [19801-20000] [20001-20200] [20201-20400] [20401-20600] [20601-20800] [20801-21000] [21001-21200] [21201-21400] [21401-21600] [21601-21800] [21801-22000] [22001-22200] [22201-22400] [22401-22600] [22601-22800] [22801-23000] [23001-23200] [23201-23400] [23401-23600] [23601-23800] [23801-24000] [24001-24200] [24201-24400] [24401-24600] [24601-24800] [24801-25000] [25001-25200] [25201-25400] [25401-25600] [25601-25800] [25801-26000] [26001-26200] [26201-26400] [26401-26600] [26601-26800] [26801-27000] [27001-27200] [27201-27400] [27401-27600] [27601-27800] [27801-28000] [28001-28200] [28201-28400] [28401-28600] [28601-28800] [28801-29000] [29001-29200] [29201-29400] [29401-29600] [29601-29800] [29801-30000] [30001-30200] [30201-30400] [30401-30600] [30601-30800] [30801-31000] [31001-31200] [31201-31400] [31401-31600] [31601-31800] [31801-32000] [32001-32200] [32201-32400] [32401-32600] [32601-32800] [32801-33000] [33001-33200] [33201-33400] [33401-33600] [33601-33800] [33801-34000] [34001-34200] [34201-34400] [34401-34600] [34601-34800] [34801-35000] [35001-35200] [35201-35400] [35401-35600] [35601-35800] [35801-36000] [36001-36200] [36201-36400] [36401-36600] [36601-36800] [36801-37000] [37001-37200] [37201-37400] [37401-37600] [37601-37800] [37801-38000] [38001-38200] [38201-38400] [38401-38600] [38601-38800] [38801-39000] [39001-39200] [39201-39400] [39401-39600] [39601-39800] [39801-40000] [40001-40200] [40201-40400] [40401-40600] [40601-40800] [40801-41000] [41001-41200] [41201-41400] [41401-41600] [41601-41800] [41801-42000] [42001-42200] [42201-42400] [42401-42600] [42601-42800] [42801-43000] [43001-43200] [43201-43400] [43401-43600] [43601-43800] [43801-44000] [44001-44200] [44201-44400] [44401-44600] [44601-44800] [44801-45000] [45001-45200] [45201-45400] [45401-45600] [45601-45800] [45801-46000] [46001-46200] [46201-46400] [46401-46600] [46601-46800] [46801-47000] [47001-47200] [47201-47400] [47401-47600] [47601-47800] [47801-48000] [48001-48200] [48201-48400] [48401-48600] [48601-48800] [48801-49000] [49001-49200] [49201-49400] [49401-49600] [49601-49800] [49801-50000] [50001-50200] [50201-50388]

Designation T Tech N Date Right Ascension Declination Apparent Magnitude Star Catalog Site code χ Used A Used M
yr-mo-day precision hr:min:sec precision rms F bias residual deg min sec precision rms F bias residual mag/col rms residual
2021JH6 O C K 2021-05-16.42156 1.000E-05 15:35:08.840 1.500E-01 0.500 F 0.164 0.422 -07° 26' 03.20" 1.000E-01 0.500 F 0.177 0.206 21.8 R 0.70 0.34 o 691 1.00 Yes Yes
2004JQ1 O C 2021-05-16.46671 1.000E-05 19:16:32.910 1.500E-01 0.500 F 0.019 -0.039 +24° 19' 46.00" 1.000E-01 0.500 F 0.278 -0.437 19.1 R 0.70 0.22 o 691 0.88 Yes Yes
2004JQ1 O C 2021-05-16.46802 1.000E-05 19:16:33.270 1.500E-01 0.500 F 0.019 0.296 +24° 19' 47.30" 1.000E-01 0.500 F 0.278 0.075 19.1 R 0.70 0.22 o 691 0.62 Yes Yes
2004JQ1 O C 2021-05-16.46933 1.000E-05 19:16:33.580 1.500E-01 0.500 F 0.019 -0.053 +24° 19' 47.70" 1.000E-01 0.500 F 0.278 -0.312 19.3 R 0.70 0.42 o 691 0.64 Yes Yes
2021AB8 O C K 2021-05-17.15572 1.000E-05 09:31:00.680 1.500E-01 0.500 F 0.134 0.384 -14° 28' 21.30" 1.000E-01 0.500 F -0.071 -0.333 21.8 R 0.70 1.06 o 691 1.07 Yes Yes
2021AB8 O C K 2021-05-17.16071 1.000E-05 09:31:01.810 1.500E-01 0.500 F 0.134 -1.319 -14° 28' 26.80" 1.000E-01 0.500 F -0.071 0.444 22.2 R 0.70 1.46 o 691 2.94 Yes Yes
2021AB8 O C K 2021-05-17.16570 1.000E-05 09:31:03.190 1.500E-01 0.500 F 0.134 0.599 -14° 28' 33.50" 1.000E-01 0.500 F -0.071 0.018 21.5 R 0.70 0.76 o 691 1.27 Yes Yes
2021JA O C K 2021-05-17.17415 1.000E-05 14:32:46.570 1.500E-01 0.500 F 0.298 -0.165 -21° 39' 32.40" 1.000E-01 0.500 F -0.073 -0.086 21.8 R 0.70 0.19 o 691 0.43 Yes Yes
2021JA O C K 2021-05-17.19174 1.000E-05 14:32:45.780 1.500E-01 0.500 F 0.298 -0.407 -21° 39' 54.90" 1.000E-01 0.500 F -0.073 0.691 22.6 R 0.70 0.98 o 691 1.71 Yes Yes
2021JA O C K 2021-05-17.20935 1.000E-05 14:32:44.980 1.500E-01 0.500 F 0.298 -0.620 -21° 40' 18.40" 1.000E-01 0.500 F -0.073 0.329 22.2 R 0.70 0.58 o 691 1.46 Yes Yes
2021JT5 O C K 2021-05-17.23692 1.000E-05 17:01:02.300 1.500E-01 0.500 F 0.054 -0.173 +09° 42' 23.00" 1.000E-01 0.500 F 0.212 -0.130 20.6 R 0.70 0.09 o 691 0.43 Yes Yes
2021JT5 O C K 2021-05-17.24419 1.000E-05 17:01:02.400 1.500E-01 0.500 F 0.054 -0.410 +09° 42' 26.40" 1.000E-01 0.500 F 0.212 -0.008 20.9 R 0.70 0.39 o 691 0.82 Yes Yes
2021JT5 O C K 2021-05-17.25145 1.000E-05 17:01:02.520 1.500E-01 0.500 F 0.054 -0.323 +09° 42' 29.60" 1.000E-01 0.500 F 0.212 -0.077 20.7 R 0.70 0.19 o 691 0.67 Yes Yes
2021JL4 O C K 2021-05-17.26089 1.000E-05 11:57:26.580 1.500E-01 0.500 F 0.132 0.225 -02° 08' 17.00" 1.000E-01 0.500 F 0.225 0.276 20.8 R 0.70 0.58 o 691 0.73 Yes Yes
2021JL4 O C K 2021-05-17.26514 1.000E-05 11:57:24.630 1.500E-01 0.500 F 0.132 0.398 -02° 07' 54.90" 1.000E-01 0.500 F 0.225 0.029 20.4 R 0.70 0.18 o 691 0.83 Yes Yes
2021JL4 O C K 2021-05-17.26940 1.000E-05 11:57:22.620 1.500E-01 0.500 F 0.132 -0.287 -02° 07' 32.30" 1.000E-01 0.500 F 0.225 0.224 21.0 R 0.70 0.78 o 691 0.77 Yes Yes
2021JR1 O C K 2021-05-17.27784 1.000E-05 12:57:37.570 1.500E-01 0.500 F 0.331 -0.917 +14° 22' 41.00" 1.000E-01 0.500 F 0.282 0.212 20.9 R 0.70 -0.33 o 691 1.99 Yes Yes
2021JR1 O C K 2021-05-17.29272 1.000E-05 12:57:33.860 1.500E-01 0.500 F 0.331 1.520 +14° 21' 40.00" 1.000E-01 0.500 F 0.282 1.386 21.8 R 0.70 0.57 o 691 3.91 No Yes
2021JR1 O C K 2021-05-17.30759 1.000E-05 12:57:29.890 1.500E-01 0.500 F 0.331 -0.106 +14° 20' 36.20" 1.000E-01 0.500 F 0.282 -0.220 o 691 0.52 Yes No
2021JN2 O C K 2021-05-17.32834 1.000E-05 13:27:56.460 1.500E-01 0.500 F 0.227 -0.042 +02° 31' 43.80" 1.000E-01 0.500 F 0.173 -0.112 21.6 R 0.70 0.32 o 691 0.25 Yes Yes
2021JN2 O C K 2021-05-17.34866 1.000E-05 13:27:58.340 1.500E-01 0.500 F 0.227 0.539 +02° 30' 48.50" 1.000E-01 0.500 F 0.173 -0.514 22.4 R 0.70 1.11 o 691 1.55 Yes Yes
2021JH6 O C K 2021-05-17.38773 1.000E-05 15:34:39.350 1.500E-01 0.500 F 0.074 0.109 -06° 18' 47.10" 1.000E-01 0.500 F 0.227 -0.196 21.4 R 0.70 -0.10 o 691 0.49 Yes Yes
2021JH6 O C K 2021-05-17.39988 1.000E-05 15:34:38.850 1.500E-01 0.500 F 0.074 -0.163 -06° 17' 56.40" 1.000E-01 0.500 F 0.227 -0.317 21.3 R 0.70 -0.20 o 691 0.75 Yes Yes
2021JH6 O C K 2021-05-17.41202 1.000E-05 15:34:38.380 1.500E-01 0.500 F 0.074 -0.075 -06° 17' 05.80" 1.000E-01 0.500 F 0.227 -0.507 21.3 R 0.70 -0.20 o 691 1.09 Yes Yes
2004JQ1 O C 2021-05-17.43465 1.000E-05 19:21:07.430 1.500E-01 0.500 F 0.096 0.443 +24° 29' 28.80" 1.000E-01 0.500 F 0.332 -0.186 19.6 R 0.70 0.82 o 691 0.97 Yes Yes
2004JQ1 O C 2021-05-17.43815 1.000E-05 19:21:08.400 1.500E-01 0.500 F 0.096 0.229 +24° 29' 31.30" 1.000E-01 0.500 F 0.332 0.163 19.0 R 0.70 0.22 o 691 0.57 Yes Yes
2004JQ1 O C 2021-05-17.44516 1.000E-05 19:21:10.370 1.500E-01 0.500 F 0.096 0.164 +24° 29' 35.50" 1.000E-01 0.500 F 0.332 0.074 19.5 R 0.70 0.72 o 691 0.36 Yes Yes
2021DQ2 O C H 2021-05-18.17172 1.000E-05 10:11:34.100 1.500E-01 0.500 F 0.066 0.052 -20° 19' 36.50" 1.000E-01 0.500 F 0.006 0.251 o 691 0.53 Yes No
2014CS O C K 2021-05-18.17324 1.000E-05 10:40:45.290 1.500E-01 0.500 F 0.067 0.778 -08° 48' 43.20" 1.000E-01 0.500 F 0.070 -0.169 21.9 R 0.70 1.30 o 691 1.61 Yes Yes
2021DQ2 O C H 2021-05-18.18701 1.000E-05 10:11:35.310 1.500E-01 0.500 F 0.066 -3.805 -20° 20' 40.60" 1.000E-01 0.500 F 0.006 5.230 o 691 12.49 No No
2014CS O C K 2021-05-18.18853 1.000E-05 10:40:47.540 1.500E-01 0.500 F 0.067 -0.376 -08° 48' 54.30" 1.000E-01 0.500 F 0.070 0.431 o 691 1.18 Yes No
2021HS O C H 2021-05-18.19584 1.000E-05 11:37:41.780 1.500E-01 0.500 F 0.292 0.073 -19° 07' 07.20" 1.000E-01 0.500 F -0.058 0.627 20.5 R 0.70 0.28 o 691 1.27 Yes Yes
2021HJ2 O C H 2021-05-18.19742 1.000E-05 12:11:59.230 1.500E-01 0.500 F 0.182 -0.361 -08° 32' 37.80" 1.000E-01 0.500 F -0.103 0.249 17.9 R 0.70 -0.28 o 691 0.90 Yes Yes
2021HS O C H 2021-05-18.20148 1.000E-05 11:37:41.310 1.500E-01 0.500 F 0.292 -0.361 -19° 07' 00.50" 1.000E-01 0.500 F -0.058 -0.155 o 691 0.79 Yes No
2021HJ2 O C H 2021-05-18.20306 1.000E-05 12:11:51.930 1.500E-01 0.500 F 0.182 -0.280 -08° 33' 27.20" 1.000E-01 0.500 F -0.103 -0.115 18.2 R 0.70 0.02 o 691 0.62 Yes Yes
2021HS O C H 2021-05-18.20712 1.000E-05 11:37:40.900 1.500E-01 0.500 F 0.292 0.049 -19° 06' 52.70" 1.000E-01 0.500 F -0.058 0.159 20.2 R 0.70 -0.02 o 691 0.33 Yes Yes
2021HJ2 O C H 2021-05-18.20870 1.000E-05 12:11:44.640 1.500E-01 0.500 F 0.182 -0.046 -08° 34' 15.60" 1.000E-01 0.500 F -0.103 0.506 18.3 R 0.70 0.12 o 691 1.04 Yes Yes
2021AD7 O C H 2021-05-18.21432 1.000E-05 12:10:12.910 1.500E-01 0.500 F 0.307 0.005 -22° 30' 27.00" 1.000E-01 0.500 F 0.010 -0.490 19.5 R 0.70 0.12 o 691 1.00 Yes Yes
2021JX2 O C K 2021-05-18.21582 1.000E-05 12:25:20.480 1.500E-01 0.500 F 0.283 0.008 -07° 01' 07.50" 1.000E-01 0.500 F -0.050 -0.043 o 691 0.09 Yes No
2021AD7 O C H 2021-05-18.22198 1.000E-05 12:10:14.140 1.500E-01 0.500 F 0.307 -0.401 -22° 30' 26.90" 1.000E-01 0.500 F 0.010 0.385 19.1 R 0.70 -0.28 o 691 1.13 Yes Yes
2021JX2 O C K 2021-05-18.22350 1.000E-05 12:25:17.220 1.500E-01 0.500 F 0.283 0.355 -07° 02' 24.90" 1.000E-01 0.500 F -0.050 0.349 o 691 1.07 Yes No
2021AD7 O C H 2021-05-18.22968 1.000E-05 12:10:15.440 1.500E-01 0.500 F 0.307 0.057 -22° 30' 27.90" 1.000E-01 0.500 F 0.010 0.149 20.0 R 0.70 0.62 o 691 0.32 Yes Yes
2021JX2 O C K 2021-05-18.23117 1.000E-05 12:25:13.930 1.500E-01 0.500 F 0.283 -0.022 -07° 03' 43.40" 1.000E-01 0.500 F -0.050 -0.488 o 691 1.03 Yes No
2021GP7 O C H 2021-05-18.23688 1.000E-05 13:18:20.500 1.500E-01 0.500 F 0.245 0.312 +02° 09' 42.00" 1.000E-01 0.500 F 0.094 -0.890 20.2 R 0.70 0.58 o 691 1.92 Yes Yes
2021JR6 O C K 2021-05-18.24073 1.000E-05 12:56:22.280 1.500E-01 0.500 F 0.230 0.985 -17° 34' 31.50" 1.000E-01 0.500 F 0.139 0.472 20.6 R 0.70 -0.02 o 691 2.24 Yes Yes
2021GP7 O C H 2021-05-18.24353 1.000E-05 13:18:20.840 1.500E-01 0.500 F 0.245 -0.026 +02° 08' 54.00" 1.000E-01 0.500 F 0.094 0.316 20.5 R 0.70 0.88 o 691 0.65 Yes Yes
2021JR6 O C K 2021-05-18.24738 1.000E-05 12:56:24.080 1.500E-01 0.500 F 0.230 -0.432 -17° 34' 20.40" 1.000E-01 0.500 F 0.139 0.026 21.5 R 0.70 0.88 o 691 0.89 Yes Yes
2021GP7 O C H 2021-05-18.25019 1.000E-05 13:18:21.160 1.500E-01 0.500 F 0.245 -0.699 +02° 08' 05.30" 1.000E-01 0.500 F 0.094 0.898 20.3 R 0.70 0.68 o 691 2.32 Yes Yes
2021JR6 O C K 2021-05-18.25404 1.000E-05 12:56:26.020 1.500E-01 0.500 F 0.230 0.048 -17° 34' 09.60" 1.000E-01 0.500 F 0.139 -0.785 21.4 R 0.70 0.78 o 691 1.59 Yes Yes
1993HO1 O C 2021-05-18.25748 1.000E-05 14:13:22.290 1.500E-01 0.500 F 0.241 -0.452 -19° 39' 30.00" 1.000E-01 0.500 F 0.098 -0.116 18.5 V 0.70 0.52 o 691 0.93 Yes Yes
2021JP3 O C K 2021-05-18.25868 1.000E-05 14:18:45.050 1.500E-01 0.500 F 0.335 -0.013 -17° 08' 55.40" 1.000E-01 0.500 F 0.058 0.078 20.7 R 0.70 0.38 o 691 0.16 Yes Yes
1993HO1 O C 2021-05-18.26453 1.000E-05 14:13:21.870 1.500E-01 0.500 F 0.241 -0.574 -19° 39' 29.10" 1.000E-01 0.500 F 0.098 -0.140 18.4 V 0.70 0.42 o 691 1.18 Yes Yes
1993HO1 O C 2021-05-18.27159 1.000E-05 14:13:21.470 1.500E-01 0.500 F 0.241 -0.409 -19° 39' 28.00" 1.000E-01 0.500 F 0.098 0.028 18.4 V 0.70 0.42 o 691 0.82 Yes Yes
2021JP3 O C K 2021-05-18.27279 1.000E-05 14:18:50.750 1.500E-01 0.500 F 0.335 -0.026 -17° 10' 22.50" 1.000E-01 0.500 F 0.058 -0.277 20.9 R 0.70 0.58 o 691 0.56 Yes Yes
2021JG1 O C H 2021-05-18.28936 1.000E-05 15:56:13.660 1.500E-01 0.500 F 0.201 -0.403 -04° 09' 09.80" 1.000E-01 0.500 F 0.331 -0.125 18.7 R 0.70 0.09 o 691 0.85 Yes Yes
2021JG1 O C H 2021-05-18.30390 1.000E-05 15:56:13.440 1.500E-01 0.500 F 0.201 -0.209 -04° 08' 23.70" 1.000E-01 0.500 F 0.331 -0.008 18.6 R 0.70 -0.01 o 691 0.42 Yes Yes
2021JG1 O C H 2021-05-18.31899 1.000E-05 15:56:13.210 1.500E-01 0.500 F 0.201 0.120 -04° 07' 35.70" 1.000E-01 0.500 F 0.331 0.000 18.6 R 0.70 0.00 o 691 0.24 Yes Yes
2014QZ432 O C H 2021-05-18.32481 1.000E-05 15:23:21.020 1.500E-01 0.500 F 0.232 -1.169 -14° 56' 49.20" 1.000E-01 0.500 F 0.038 0.182 18.9 R 0.70 0.13 o 691 2.37 Yes Yes
2021GA13 O C H 2021-05-18.32953 1.000E-05 15:53:27.240 1.500E-01 0.500 F 0.028 -0.070 -19° 53' 55.70" 1.000E-01 0.500 F 0.055 0.558 19.3 R 0.70 0.23 o 691 1.17 Yes Yes
2014QZ432 O C H 2021-05-18.33163 1.000E-05 15:23:20.810 1.500E-01 0.500 F 0.232 -0.271 -14° 56' 46.90" 1.000E-01 0.500 F 0.038 -0.374 18.8 R 0.70 0.03 o 691 0.93 Yes Yes
2021GA13 O C H 2021-05-18.33637 1.000E-05 15:53:27.030 1.500E-01 0.500 F 0.028 -0.282 -19° 54' 51.50" 1.000E-01 0.500 F 0.055 -0.353 19.1 R 0.70 0.03 o 691 0.94 Yes Yes
2014QZ432 O C H 2021-05-18.33847 1.000E-05 15:23:20.540 1.500E-01 0.500 F 0.232 -0.237 -14° 56' 43.80" 1.000E-01 0.500 F 0.038 -0.146 18.9 R 0.70 0.13 o 691 0.56 Yes Yes
2021GA13 O C H 2021-05-18.34322 1.000E-05 15:53:26.840 1.500E-01 0.500 F 0.028 -0.226 -19° 55' 46.20" 1.000E-01 0.500 F 0.055 -0.147 19.2 R 0.70 0.13 o 691 0.56 Yes Yes
2021JT5 O C H 2021-05-18.34815 1.000E-05 17:01:24.340 1.500E-01 0.500 F 0.054 0.046 +09° 50' 17.40" 1.000E-01 0.500 F 0.212 -0.030 20.4 R 0.70 -0.05 o 691 0.11 Yes Yes
2014UU192 O C H 2021-05-18.35092 1.000E-05 17:09:23.090 1.500E-01 0.500 F 0.161 -0.056 +09° 11' 17.10" 1.000E-01 0.500 F 0.174 0.363 20.3 R 0.70 0.44 o 691 0.74 Yes Yes
2021JT5 O C H 2021-05-18.35616 1.000E-05 17:01:24.430 1.500E-01 0.500 F 0.054 -0.111 +09° 50' 21.30" 1.000E-01 0.500 F 0.212 0.546 20.4 R 0.70 -0.05 o 691 1.12 Yes Yes
2014UU192 O C H 2021-05-18.35893 1.000E-05 17:09:23.090 1.500E-01 0.500 F 0.161 -0.055 +09° 11' 29.00" 1.000E-01 0.500 F 0.174 0.151 20.0 R 0.70 0.14 o 691 0.32 Yes Yes
2021JT5 O C H 2021-05-18.36417 1.000E-05 17:01:24.540 1.500E-01 0.500 F 0.054 0.030 +09° 50' 24.10" 1.000E-01 0.500 F 0.212 0.030 20.5 R 0.70 0.05 o 691 0.09 Yes Yes
2014UU192 O C H 2021-05-18.36693 1.000E-05 17:09:23.070 1.500E-01 0.500 F 0.161 -0.345 +09° 11' 41.30" 1.000E-01 0.500 F 0.174 0.360 19.9 R 0.70 0.04 o 691 1.00 Yes Yes
2015VD66 O C 2021-05-18.37298 1.000E-05 20:22:05.890 1.500E-01 0.500 F -0.228 -0.120 -14° 50' 16.10" 1.000E-01 0.500 F 0.238 -0.707 20.0 V 0.70 0.48 o 691 1.46 Yes Yes
2015VD66 O C 2021-05-18.37971 1.000E-05 20:22:06.860 1.500E-01 0.500 F -0.228 0.746 -14° 50' 49.50" 1.000E-01 0.500 F 0.238 -0.286 19.8 V 0.70 0.28 o 691 1.64 Yes Yes
2015VD66 O C 2021-05-18.38645 1.000E-05 20:22:07.720 1.500E-01 0.500 F -0.228 0.030 -14° 51' 22.80" 1.000E-01 0.500 F 0.238 0.282 20.1 V 0.70 0.58 o 691 0.58 Yes Yes
2021FN4 O C H 2021-05-19.15544 1.000E-05 10:27:28.380 1.500E-01 0.500 F 0.083 -0.298 +15° 24' 16.60" 1.000E-01 0.500 F 0.176 -0.118 16.9 R 0.70 -1.17 o 691 0.65 Yes Yes
2021FN4 O C H 2021-05-19.16171 1.000E-05 10:27:21.040 1.500E-01 0.500 F 0.083 -0.063 +15° 23' 35.50" 1.000E-01 0.500 F 0.176 -0.019 16.4 R 0.70 -1.67 o 691 0.14 Yes Yes
2021FN4 O C H 2021-05-19.16796 1.000E-05 10:27:13.710 1.500E-01 0.500 F 0.083 -0.033 +15° 22' 54.60" 1.000E-01 0.500 F 0.176 0.322 16.4 R 0.70 -1.67 o 691 0.66 Yes Yes
2021HJ2 O C H 2021-05-20.15888 1.000E-05 11:28:24.530 1.500E-01 0.500 F 0.200 0.045 -13° 29' 45.60" 1.000E-01 0.500 F 0.074 -0.193 18.1 R 0.70 -0.22 o 691 0.41 Yes Yes
2021HS O C K 2021-05-20.16267 1.000E-05 11:35:23.390 1.500E-01 0.500 F 0.378 0.056 -18° 23' 40.10" 1.000E-01 0.500 F 0.049 0.572 20.5 R 0.70 0.29 o 691 1.15 Yes Yes
2021HJ2 O C H 2021-05-20.16835 1.000E-05 11:28:10.190 1.500E-01 0.500 F 0.200 -0.471 -13° 31' 12.70" 1.000E-01 0.500 F 0.074 -0.216 18.1 R 0.70 -0.22 o 691 1.08 Yes Yes
2021HS O C K 2021-05-20.17214 1.000E-05 11:35:22.710 1.500E-01 0.500 F 0.378 0.122 -18° 23' 28.00" 1.000E-01 0.500 F 0.049 0.009 20.5 R 0.70 0.29 o 691 0.24 Yes Yes
2021HJ2 O C H 2021-05-20.17783 1.000E-05 11:27:55.890 1.500E-01 0.500 F 0.200 -0.221 -13° 32' 39.50" 1.000E-01 0.500 F 0.074 -0.003 17.8 R 0.70 -0.52 o 691 0.46 Yes Yes
2021HS O C K 2021-05-20.18162 1.000E-05 11:35:22.040 1.500E-01 0.500 F 0.378 0.327 -18° 23' 15.20" 1.000E-01 0.500 F 0.049 0.121 20.5 R 0.70 0.30 o 691 0.70 Yes Yes
2014KV76 O C H 2021-05-20.18760 1.000E-05 12:16:31.960 1.500E-01 0.500 F 0.346 -0.191 -01° 58' 24.40" 1.000E-01 0.500 F 0.140 0.066 19.0 R 0.70 0.39 o 691 0.41 Yes Yes
2021AD7 O C H 2021-05-20.19157 1.000E-05 12:15:53.820 1.500E-01 0.500 F 0.279 -0.064 -22° 34' 02.70" 1.000E-01 0.500 F -0.017 -0.086 19.4 R 0.70 -0.03 o 691 0.22 Yes Yes
2014KV76 O C H 2021-05-20.19321 1.000E-05 12:16:30.900 1.500E-01 0.500 F 0.346 0.043 -01° 57' 53.60" 1.000E-01 0.500 F 0.140 -0.025 18.8 R 0.70 0.19 o 691 0.09 Yes Yes
2021AD7 O C H 2021-05-20.19717 1.000E-05 12:15:54.760 1.500E-01 0.500 F 0.279 0.106 -22° 34' 02.90" 1.000E-01 0.500 F -0.017 0.244 19.8 R 0.70 0.37 o 691 0.54 Yes Yes
2014KV76 O C H 2021-05-20.19881 1.000E-05 12:16:29.800 1.500E-01 0.500 F 0.346 -0.369 -01° 57' 23.10" 1.000E-01 0.500 F 0.140 -0.358 18.5 R 0.70 -0.11 o 691 1.05 Yes Yes
2021AD7 O C H 2021-05-20.20278 1.000E-05 12:15:55.680 1.500E-01 0.500 F 0.279 -0.029 -22° 34' 03.80" 1.000E-01 0.500 F -0.017 -0.132 19.5 R 0.70 0.07 o 691 0.28 Yes Yes
2015WG9 O C H 2021-05-20.20418 1.000E-05 12:19:49.660 1.500E-01 0.500 F 0.393 0.273 -30° 02' 13.30" 1.000E-01 0.500 F 0.247 -0.135 19.1 R 0.70 0.32 o 691 0.62 Yes Yes
1997GL3 O C K 2021-05-20.20629 1.000E-05 12:45:57.730 1.500E-01 0.500 F 0.175 -0.098 +02° 16' 13.50" 1.000E-01 0.500 F 0.147 0.042 20.1 R 0.70 0.03 o 691 0.22 Yes Yes
2021GQ6 O C K 2021-05-20.21061 1.000E-05 12:29:24.130 1.500E-01 0.500 F 0.469 0.399 -29° 42' 43.00" 1.000E-01 0.500 F 0.236 0.541 19.4 R 0.70 -0.12 o 691 1.38 Yes Yes
2015WG9 O C H 2021-05-20.21296 1.000E-05 12:19:46.620 1.500E-01 0.500 F 0.393 0.813 -30° 00' 59.30" 1.000E-01 0.500 F 0.247 0.223 19.8 R 0.70 1.02 o 691 1.71 Yes Yes
1997GL3 O C K 2021-05-20.21507 1.000E-05 12:45:58.320 1.500E-01 0.500 F 0.175 0.057 +02° 16' 08.50" 1.000E-01 0.500 F 0.147 0.100 20.2 R 0.70 0.13 o 691 0.23 Yes Yes
2021GQ6 O C K 2021-05-20.21940 1.000E-05 12:29:20.870 1.500E-01 0.500 F 0.469 0.803 -29° 42' 54.80" 1.000E-01 0.500 F 0.236 -0.575 20.0 R 0.70 0.48 o 691 2.03 Yes Yes
1997GL3 O C K 2021-05-20.22387 1.000E-05 12:45:58.890 1.500E-01 0.500 F 0.175 -0.113 +02° 16' 03.60" 1.000E-01 0.500 F 0.147 0.270 20.2 R 0.70 0.13 o 691 0.59 Yes Yes
2021GQ6 O C K 2021-05-20.22820 1.000E-05 12:29:17.500 1.500E-01 0.500 F 0.469 -0.203 -29° 43' 05.00" 1.000E-01 0.500 F 0.236 -0.123 19.5 R 0.70 -0.02 o 691 0.50 Yes Yes
2021GP7 O C K 2021-05-20.23793 1.000E-05 13:21:10.490 1.500E-01 0.500 F 0.237 0.060 -01° 55' 19.20" 1.000E-01 0.500 F 0.175 -0.709 20.6 R 0.70 0.97 o 691 1.45 Yes Yes
2021GP7 O C K 2021-05-20.24471 1.000E-05 13:21:10.930 1.500E-01 0.500 F 0.237 0.386 -01° 56' 07.80" 1.000E-01 0.500 F 0.175 0.030 20.1 R 0.70 0.47 o 691 0.79 Yes Yes
2014GD50 O C H 2021-05-20.25685 1.000E-05 14:25:43.890 1.500E-01 0.500 F 0.058 0.066 -03° 41' 15.40" 1.000E-01 0.500 F 0.065 -0.060 15.9 R 0.70 -0.11 o 691 0.18 Yes Yes
2021JP3 O C K 2021-05-20.25805 1.000E-05 14:37:10.130 1.500E-01 0.500 F 0.232 -1.007 -21° 02' 17.00" 1.000E-01 0.500 F -0.029 -0.095 o 691 2.07 Yes No
2014GD50 O C H 2021-05-20.26557 1.000E-05 14:25:34.350 1.500E-01 0.500 F 0.058 0.053 -03° 43' 22.90" 1.000E-01 0.500 F 0.065 0.068 16.0 R 0.70 -0.01 o 691 0.17 Yes Yes
2021JP3 O C K 2021-05-20.26677 1.000E-05 14:37:15.160 1.500E-01 0.500 F 0.232 -1.250 -21° 03' 25.10" 1.000E-01 0.500 F -0.029 0.647 o 691 2.89 Yes No
2014GD50 O C H 2021-05-20.27432 1.000E-05 14:25:24.770 1.500E-01 0.500 F 0.058 0.102 -03° 45' 31.00" 1.000E-01 0.500 F 0.065 0.180 16.0 R 0.70 -0.01 o 691 0.41 Yes Yes
2014QZ432 O C H 2021-05-20.30380 1.000E-05 15:22:16.060 1.500E-01 0.500 F 0.232 -0.054 -14° 43' 11.50" 1.000E-01 0.500 F 0.038 0.093 19.1 R 0.70 0.31 o 691 0.22 Yes Yes
2014QZ432 O C H 2021-05-20.32853 1.000E-05 15:22:15.070 1.500E-01 0.500 F 0.232 -0.068 -14° 43' 01.30" 1.000E-01 0.500 F 0.038 -0.029 19.1 R 0.70 0.31 o 691 0.15 Yes Yes
2014QZ432 O C H 2021-05-20.35325 1.000E-05 15:22:14.090 1.500E-01 0.500 F 0.232 -0.042 -14° 42' 50.90" 1.000E-01 0.500 F 0.038 -0.046 19.1 R 0.70 0.31 o 691 0.12 Yes Yes
2012HD20 O C H 2021-05-20.35883 1.000E-05 16:48:26.060 1.500E-01 0.500 F 0.028 0.013 -13° 12' 24.20" 1.000E-01 0.500 F 0.320 0.447 20.2 R 0.70 -0.19 o 691 0.90 Yes Yes
2015NJ24 O C H 2021-05-20.36324 1.000E-05 17:09:14.100 1.500E-01 0.500 F 0.002 -0.084 +02° 10' 12.30" 1.000E-01 0.500 F 0.169 0.281 21.2 R 0.70 0.92 o 691 0.58 Yes Yes
2012HD20 O C H 2021-05-20.36501 1.000E-05 16:48:24.930 1.500E-01 0.500 F 0.028 0.769 -13° 12' 28.30" 1.000E-01 0.500 F 0.320 0.029 21.3 R 0.70 0.91 o 691 1.55 Yes Yes
2015NJ24 O C H 2021-05-20.36944 1.000E-05 17:09:12.990 1.500E-01 0.500 F 0.002 -0.600 +02° 10' 10.00" 1.000E-01 0.500 F 0.169 0.066 20.6 R 0.70 0.32 o 691 1.21 Yes Yes
2012HD20 O C H 2021-05-20.37102 1.000E-05 16:48:23.750 1.500E-01 0.500 F 0.028 0.315 -13° 12' 31.90" 1.000E-01 0.500 F 0.320 0.001 21.5 R 0.70 1.11 o 691 0.64 Yes Yes
2015NJ24 O C H 2021-05-20.37543 1.000E-05 17:09:11.990 1.500E-01 0.500 F 0.002 -0.015 +02° 10' 08.60" 1.000E-01 0.500 F 0.169 0.684 20.3 R 0.70 0.02 o 691 1.37 Yes Yes
2021JW6 O C K 2021-05-22.21187 1.000E-05 13:32:27.010 1.500E-01 0.500 F 0.181 0.235 +02° 04' 05.90" 1.000E-01 0.500 F 0.130 -0.468 21.0 R 0.70 0.51 o 691 1.12 Yes Yes
2021JP3 O C K 2021-05-22.22213 1.000E-05 15:02:51.410 1.500E-01 0.500 F 0.315 0.108 -25° 52' 48.30" 1.000E-01 0.500 F 0.336 -0.011 19.4 R 0.70 -0.11 o 691 0.23 Yes Yes
2021JW6 O C K 2021-05-22.23080 1.000E-05 13:32:32.330 1.500E-01 0.500 F 0.181 -0.390 +02° 02' 15.60" 1.000E-01 0.500 F 0.130 0.663 o 691 1.64 Yes No
2021JP3 O C K 2021-05-22.24126 1.000E-05 15:03:07.670 1.500E-01 0.500 F 0.315 -0.103 -25° 55' 59.00" 1.000E-01 0.500 F 0.336 0.655 19.7 R 0.70 0.20 o 691 1.40 Yes Yes
2021JW6 O C K 2021-05-22.24999 1.000E-05 13:32:37.850 1.500E-01 0.500 F 0.181 0.265 +02° 00' 21.10" 1.000E-01 0.500 F 0.130 -0.478 20.8 R 0.70 0.32 o 691 1.17 Yes Yes
2021HJ2 O C K 2021-05-23.15387 1.000E-05 10:11:52.070 1.500E-01 0.500 F 0.055 0.367 -20° 38' 51.50" 1.000E-01 0.500 F -0.008 0.034 18.2 R 0.70 -0.64 o 691 0.83 Yes Yes
2021HJ2 O C K 2021-05-23.16347 1.000E-05 10:11:36.210 1.500E-01 0.500 F 0.055 -0.100 -20° 40' 00.40" 1.000E-01 0.500 F -0.008 -0.005 o 691 0.22 Yes No
2015KJ19 O C K 2021-05-23.22660 1.000E-05 15:03:21.990 1.500E-01 0.500 F 0.106 -0.245 +00° 16' 47.50" 1.000E-01 0.500 F 0.238 -0.243 19.2 R 0.70 0.31 o 691 0.69 Yes Yes
2015KJ19 O C K 2021-05-23.23595 1.000E-05 15:03:22.230 1.500E-01 0.500 F 0.106 -0.001 +00° 15' 41.90" 1.000E-01 0.500 F 0.238 0.166 19.5 R 0.70 0.60 o 691 0.33 Yes Yes
2021GC6 O C K 2021-05-23.28703 1.000E-05 17:04:34.400 1.500E-01 0.500 F 0.124 0.448 -22° 16' 22.80" 1.000E-01 0.500 F 0.246 0.144 20.4 R 0.70 0.08 o 691 1.00 Yes Yes
2021GC6 O C K 2021-05-23.30036 1.000E-05 17:04:36.570 1.500E-01 0.500 F 0.124 0.153 -22° 16' 12.10" 1.000E-01 0.500 F 0.246 0.152 20.7 R 0.70 0.38 o 691 0.45 Yes Yes
2021GC6 O C K 2021-05-23.31368 1.000E-05 17:04:38.750 1.500E-01 0.500 F 0.124 0.144 -22° 16' 01.50" 1.000E-01 0.500 F 0.246 -0.049 20.9 R 0.70 0.58 o 691 0.32 Yes Yes
2015HF11 O C 2021-05-23.44192 1.000E-05 17:54:21.480 1.500E-01 0.500 F -0.036 -0.221 +13° 17' 15.20" 1.000E-01 0.500 F 0.301 0.382 19.1 V 0.70 -0.04 o 691 0.89 Yes Yes
2021JD6 O C K 2021-05-23.44610 1.000E-05 17:12:59.480 1.500E-01 0.500 F 0.091 -0.514 +24° 20' 15.10" 1.000E-01 0.500 F 0.255 -0.464 19.2 R 0.70 0.04 o 691 1.43 Yes Yes
2015HF11 O C 2021-05-23.45117 1.000E-05 17:54:20.680 1.500E-01 0.500 F -0.036 -0.158 +13° 18' 01.30" 1.000E-01 0.500 F 0.301 -0.514 19.8 V 0.70 0.66 o 691 1.08 Yes Yes
2021JD6 O C K 2021-05-23.45395 1.000E-05 17:13:01.770 1.500E-01 0.500 F 0.091 -0.152 +24° 21' 44.40" 1.000E-01 0.500 F 0.255 0.175 19.0 R 0.70 -0.16 o 691 0.47 Yes Yes
2015HF11 O C 2021-05-23.46034 1.000E-05 17:54:19.850 1.500E-01 0.500 F -0.036 -0.661 +13° 18' 48.50" 1.000E-01 0.500 F 0.301 0.128 19.3 V 0.70 0.16 o 691 1.36 Yes Yes
2021JD6 O C K 2021-05-23.46170 1.000E-05 17:13:03.980 1.500E-01 0.500 F 0.091 -0.580 +24° 23' 12.00" 1.000E-01 0.500 F 0.255 0.332 19.1 R 0.70 -0.06 o 691 1.34 Yes Yes
1997GL3 O C K 2021-05-29.29965 1.000E-05 12:56:10.540 1.500E-01 0.500 F 0.374 -0.220 +00° 52' 59.10" 1.000E-01 0.500 F 0.372 0.296 20.9 R 0.70 0.18 o 691 0.74 Yes Yes
1997GL3 O C K 2021-05-29.31034 1.000E-05 12:56:11.220 1.500E-01 0.500 F 0.374 -0.092 +00° 52' 52.60" 1.000E-01 0.500 F 0.372 -0.548 21.4 R 0.70 0.68 o 691 1.11 Yes Yes
1997GL3 O C K 2021-05-29.32103 1.000E-05 12:56:11.900 1.500E-01 0.500 F 0.374 0.004 +00° 52' 47.60" 1.000E-01 0.500 F 0.372 0.109 21.3 R 0.70 0.58 o 691 0.22 Yes Yes
2012HD20 O C K 2021-05-29.33396 1.000E-05 16:22:39.260 1.500E-01 0.500 F -0.024 0.101 -14° 39' 06.50" 1.000E-01 0.500 F 0.138 -0.017 20.8 R 0.70 0.48 o 691 0.21 Yes Yes
2012HD20 O C K 2021-05-29.34270 1.000E-05 16:22:37.770 1.500E-01 0.500 F -0.024 0.204 -14° 39' 10.90" 1.000E-01 0.500 F 0.138 0.352 21.0 R 0.70 0.68 o 691 0.82 Yes Yes
2012HD20 O C K 2021-05-29.35145 1.000E-05 16:22:36.270 1.500E-01 0.500 F -0.024 0.166 -14° 39' 16.20" 1.000E-01 0.500 F 0.138 -0.193 o 691 0.51 Yes No
2015WG9 O C K 2021-05-30.18731 1.000E-05 11:22:40.790 1.500E-01 0.500 F 0.100 -0.012 +01° 20' 29.60" 1.000E-01 0.500 F 0.253 -0.076 20.0 R 0.70 1.11 o 691 0.16 Yes Yes
2021CD3 O C K 2021-05-30.19008 1.000E-05 10:21:30.190 1.500E-01 0.500 F 0.139 -0.636 +21° 36' 43.10" 1.000E-01 0.500 F 0.234 0.738 21.7 R 0.70 0.40 o 691 2.06 Yes Yes
Alinda O C 2021-05-30.19008 1.000E-05 10:21:07.870 1.500E-01 0.500 F 0.185 -0.336 +21° 22' 41.00" 1.000E-01 0.500 F 0.285 -0.010 17.5 V 0.70 0.14 o 691 0.67 Yes Yes
2015WG9 O C K 2021-05-30.20408 1.000E-05 11:22:34.700 1.500E-01 0.500 F 0.100 -0.003 +01° 24' 14.20" 1.000E-01 0.500 F 0.253 -0.308 20.0 R 0.70 1.11 o 691 0.63 Yes Yes
2021CD3 O C K 2021-05-30.20677 1.000E-05 10:21:33.450 1.500E-01 0.500 F 0.139 0.661 +21° 36' 31.10" 1.000E-01 0.500 F 0.234 0.196 21.5 R 0.70 0.20 o 691 1.47 Yes Yes
Alinda O C 2021-05-30.21380 1.000E-05 10:21:11.810 1.500E-01 0.500 F 0.185 -0.394 +21° 22' 15.70" 1.000E-01 0.500 F 0.285 -0.017 17.5 V 0.70 0.14 o 691 0.79 Yes Yes
2015WG9 O C K 2021-05-30.22071 1.000E-05 11:22:28.750 1.500E-01 0.500 F 0.100 1.073 +01° 27' 57.00" 1.000E-01 0.500 F 0.253 -0.478 19.7 R 0.70 0.80 o 691 2.39 Yes Yes
2021CD3 O C K 2021-05-30.22337 1.000E-05 10:21:36.600 1.500E-01 0.500 F 0.139 0.566 +21° 36' 19.30" 1.000E-01 0.500 F 0.234 -0.178 21.6 R 0.70 0.30 o 691 1.28 Yes Yes
Alinda O C 2021-05-30.23568 1.000E-05 10:21:15.460 1.500E-01 0.500 F 0.185 -0.302 +21° 21' 52.40" 1.000E-01 0.500 F 0.285 0.034 17.6 V 0.70 0.24 o 691 0.61 Yes Yes
2021JG6 O C K 2021-05-30.24268 1.000E-05 14:06:23.060 1.500E-01 0.500 F 0.368 -0.203 -12° 36' 34.00" 1.000E-01 0.500 F 0.177 -0.056 21.0 R 0.70 -0.28 o 691 0.44 Yes Yes
2021JG6 O C K 2021-05-30.25865 1.000E-05 14:06:20.170 1.500E-01 0.500 F 0.368 -0.045 -12° 36' 29.00" 1.000E-01 0.500 F 0.177 0.053 21.2 R 0.70 -0.08 o 691 0.16 Yes Yes
2021JG6 O C K 2021-05-30.27460 1.000E-05 14:06:17.280 1.500E-01 0.500 F 0.368 -0.103 -12° 36' 24.20" 1.000E-01 0.500 F 0.177 -0.125 21.1 R 0.70 -0.18 o 691 0.33 Yes Yes
2015KJ19 O C K 2021-05-30.29051 1.000E-05 15:07:16.870 1.500E-01 0.500 F 0.170 0.118 -07° 49' 36.60" 1.000E-01 0.500 F 0.151 0.010 20.5 R 0.70 0.29 o 691 0.24 Yes Yes
2015KJ19 O C K 2021-05-30.29784 1.000E-05 15:07:16.960 1.500E-01 0.500 F 0.170 0.144 -07° 49' 54.30" 1.000E-01 0.500 F 0.151 0.025 20.3 R 0.70 0.09 o 691 0.29 Yes Yes
2015KJ19 O C K 2021-05-30.30517 1.000E-05 15:07:17.050 1.500E-01 0.500 F 0.170 0.148 -07° 50' 11.90" 1.000E-01 0.500 F 0.151 0.116 20.9 R 0.70 0.68 o 691 0.38 Yes Yes
2019HH4 O C K 2021-05-30.31467 1.000E-05 14:30:40.310 1.500E-01 0.500 F -0.034 0.197 +15° 42' 48.30" 1.000E-01 0.500 F 0.173 -0.272 21.8 R 0.70 0.33 o 691 0.68 Yes Yes
2019HH4 O C K 2021-05-30.33078 1.000E-05 14:30:39.000 1.500E-01 0.500 F -0.034 1.059 +15° 43' 11.70" 1.000E-01 0.500 F 0.173 0.225 21.6 R 0.70 0.13 o 691 2.20 Yes Yes
2019HH4 O C K 2021-05-30.34689 1.000E-05 14:30:37.560 1.500E-01 0.500 F -0.034 -0.021 +15° 43' 34.30" 1.000E-01 0.500 F 0.173 -0.047 21.4 R 0.70 -0.07 o 691 0.11 Yes Yes
2021KP1 O C K 2021-05-30.40411 1.000E-05 15:52:32.540 1.500E-01 0.500 F 0.329 0.594 -04° 29' 29.00" 1.000E-01 0.500 F 0.201 0.241 21.9 R 0.70 0.44 o 691 1.30 Yes Yes
2021KP1 O C K 2021-05-30.42272 1.000E-05 15:52:31.050 1.500E-01 0.500 F 0.329 0.611 -04° 28' 52.20" 1.000E-01 0.500 F 0.201 -0.305 21.9 R 0.70 0.44 o 691 1.43 Yes Yes
2021HS O C H 2021-05-31.19077 1.000E-05 11:26:05.080 1.500E-01 0.500 F 0.252 -0.346 -14° 15' 28.30" 1.000E-01 0.500 F -0.002 -0.027 21.0 R 0.70 0.86 o 691 0.70 Yes Yes
2021JR8 O C K 2021-05-31.19235 1.000E-05 12:49:04.130 1.500E-01 0.500 F 0.257 0.006 -07° 43' 46.60" 1.000E-01 0.500 F 0.117 -0.265 o 691 0.54 Yes No
2021HS O C H 2021-05-31.19733 1.000E-05 11:26:04.860 1.500E-01 0.500 F 0.252 0.066 -14° 15' 19.50" 1.000E-01 0.500 F -0.002 -0.199 20.5 R 0.70 0.36 o 691 0.42 Yes Yes
2021JR8 O C K 2021-05-31.19890 1.000E-05 12:49:06.950 1.500E-01 0.500 F 0.257 0.264 -07° 43' 27.20" 1.000E-01 0.500 F 0.117 -0.245 20.3 R 0.70 0.27 o 691 0.73 Yes Yes
2021HS O C H 2021-05-31.20389 1.000E-05 11:26:04.650 1.500E-01 0.500 F 0.252 0.609 -14° 15' 10.00" 1.000E-01 0.500 F -0.002 0.325 20.2 R 0.70 0.06 o 691 1.39 Yes Yes
2021JR8 O C K 2021-05-31.20547 1.000E-05 12:49:09.770 1.500E-01 0.500 F 0.257 0.366 -07° 43' 07.40" 1.000E-01 0.500 F 0.117 0.104 20.7 R 0.70 0.67 o 691 0.77 Yes Yes
2016YF8 O C K 2021-05-31.30535 1.000E-05 15:41:37.550 1.500E-01 0.500 F 0.199 -0.117 -05° 52' 47.70" 1.000E-01 0.500 F 0.147 -0.011 o 691 0.24 Yes No
2016YF8 O C K 2021-05-31.31793 1.000E-05 15:41:35.870 1.500E-01 0.500 F 0.199 -0.293 -05° 52' 31.90" 1.000E-01 0.500 F 0.147 0.334 o 691 0.89 Yes No
2016YF8 O C K 2021-05-31.33051 1.000E-05 15:41:34.230 1.500E-01 0.500 F 0.199 0.089 -05° 52' 16.50" 1.000E-01 0.500 F 0.147 0.271 o 691 0.58 Yes No
2012HD20 O C K 2021-05-31.34325 1.000E-05 16:17:23.040 1.500E-01 0.500 F -0.029 -0.300 -14° 57' 25.20" 1.000E-01 0.500 F 0.017 -0.090 o 691 0.63 Yes No
2012HD20 O C K 2021-05-31.36269 1.000E-05 16:17:19.890 1.500E-01 0.500 F -0.029 0.074 -14° 57' 34.80" 1.000E-01 0.500 F 0.017 0.540 o 691 1.09 Yes No
2021AB8 O C K 2021-06-01.15996 1.000E-05 10:39:00.430 1.500E-01 0.500 F 0.168 1.079 -19° 22' 38.50" 1.000E-01 0.500 F -0.015 0.411 21.5 R 0.70 0.69 o 691 2.49 Yes Yes
2021AB8 O C K 2021-06-01.16816 1.000E-05 10:39:02.640 1.500E-01 0.500 F 0.168 -0.210 -19° 22' 47.40" 1.000E-01 0.500 F -0.015 -0.069 21.0 R 0.70 0.19 o 691 0.48 Yes Yes
2021GP7 O C K 2021-06-01.17850 1.000E-05 13:42:27.310 1.500E-01 0.500 F 0.540 0.167 -23° 07' 56.30" 1.000E-01 0.500 F 0.127 -0.552 o 691 1.20 Yes No
2021JM6 O C K 2021-06-01.18255 1.000E-05 13:05:46.460 1.500E-01 0.500 F 0.222 -0.174 +05° 41' 46.10" 1.000E-01 0.500 F 0.299 -0.079 20.2 R 0.70 -0.34 o 691 0.39 Yes Yes
2021GP7 O C K 2021-06-01.19127 1.000E-05 13:42:28.540 1.500E-01 0.500 F 0.540 -0.396 -23° 09' 02.80" 1.000E-01 0.500 F 0.127 0.065 o 691 0.84 Yes No
2021GP7 O C K 2021-06-01.20406 1.000E-05 13:42:29.840 1.500E-01 0.500 F 0.540 -0.037 -23° 10' 10.00" 1.000E-01 0.500 F 0.127 -0.086 o 691 0.21 Yes No
2021JM6 O C K 2021-06-01.20811 1.000E-05 13:05:33.970 1.500E-01 0.500 F 0.222 -0.243 +05° 43' 16.90" 1.000E-01 0.500 F 0.299 0.089 20.5 R 0.70 -0.04 o 691 0.53 Yes Yes
2021HV1 O C K 2021-06-01.21816 1.000E-05 13:41:52.530 1.500E-01 0.612 F 0.335 0.085 -13° 15' 24.90" 1.000E-01 0.612 F 0.149 0.052 21.6 R 0.70 0.25 o 691 0.16 Yes Yes
2021HV1 O C 2021-06-01.21816 1.000E-05 13:41:52.470 1.500E-01 0.612 F 0.335 -0.791 -13° 15' 25.00" 1.000E-01 0.612 F 0.149 -0.048 21.4 V 0.70 -0.35 o 691 1.31 Yes Yes
2021HV1 O C K 2021-06-01.22713 1.000E-05 13:41:52.190 1.500E-01 0.612 F 0.335 -0.391 -13° 15' 28.40" 1.000E-01 0.612 F 0.149 -0.150 21.5 R 0.70 0.15 o 691 0.69 Yes Yes
2021HV1 O C 2021-06-01.23162 1.000E-05 13:41:52.030 1.500E-01 0.612 F 0.335 -0.486 -13° 15' 30.20" 1.000E-01 0.612 F 0.149 -0.301 21.2 V 0.70 -0.55 o 691 0.94 Yes Yes
2021HV1 O C K 2021-06-01.23610 1.000E-05 13:41:51.920 1.500E-01 0.612 F 0.335 0.142 -13° 15' 31.10" 1.000E-01 0.612 F 0.149 0.441 21.3 R 0.70 -0.05 o 691 0.76 Yes Yes
2021HV1 O C 2021-06-01.24284 1.000E-05 13:41:51.650 1.500E-01 0.612 F 0.335 -0.446 -13° 15' 33.90" 1.000E-01 0.612 F 0.149 0.110 21.2 V 0.70 -0.55 o 691 0.76 Yes Yes
2021GY8 O C K 2021-06-01.24814 1.000E-05 14:18:57.030 1.500E-01 0.500 F 0.208 0.257 -14° 58' 13.90" 1.000E-01 0.500 F 0.143 -0.494 21.2 R 0.70 -0.16 o 691 1.13 Yes Yes
2021GY8 O C K 2021-06-01.25917 1.000E-05 14:18:57.910 1.500E-01 0.500 F 0.208 0.052 -14° 58' 25.20" 1.000E-01 0.500 F 0.143 0.392 21.0 R 0.70 -0.36 o 691 0.80 Yes Yes
2021GY8 O C K 2021-06-01.27020 1.000E-05 14:18:58.810 1.500E-01 0.500 F 0.208 0.096 -14° 58' 37.40" 1.000E-01 0.500 F 0.143 0.345 20.7 R 0.70 -0.67 o 691 0.73 Yes Yes
2021JF7 O C K 2021-06-01.28464 1.000E-05 16:21:36.110 1.500E-01 0.500 F 0.152 0.325 -22° 15' 15.90" 1.000E-01 0.500 F 0.082 0.025 22.4 R 0.70 0.98 o 691 0.69 Yes Yes
2021JF7 O C K 2021-06-01.29145 1.000E-05 16:21:36.840 1.500E-01 0.500 F 0.152 -0.086 -22° 15' 18.80" 1.000E-01 0.500 F 0.082 0.109 22.4 R 0.70 0.98 o 691 0.37 Yes Yes
2021JF7 O C K 2021-06-01.29825 1.000E-05 16:21:37.590 1.500E-01 0.500 F 0.152 -0.199 -22° 15' 22.10" 1.000E-01 0.500 F 0.082 -0.252 21.8 R 0.70 0.38 o 691 0.65 Yes Yes
2021KB1 O C K 2021-06-01.30660 1.000E-05 14:52:46.340 1.500E-01 0.500 F 0.196 0.422 -07° 52' 26.40" 1.000E-01 0.500 F 0.257 0.392 21.7 R 0.70 0.09 o 691 1.21 Yes Yes
2021KB1 O C K 2021-06-01.31290 1.000E-05 14:52:46.150 1.500E-01 0.500 F 0.196 0.144 -07° 52' 54.40" 1.000E-01 0.500 F 0.257 -0.004 22.1 R 0.70 0.49 o 691 0.31 Yes Yes
2021KB1 O C K 2021-06-01.31921 1.000E-05 14:52:45.970 1.500E-01 0.500 F 0.196 -0.069 -07° 53' 22.10" 1.000E-01 0.500 F 0.257 -0.088 21.4 R 0.70 -0.21 o 691 0.23 Yes Yes
2013BO27 O C K 2021-06-01.33952 1.000E-05 15:55:16.870 1.500E-01 0.500 F 0.185 0.338 +04° 12' 25.30" 1.000E-01 0.500 F 0.143 -0.145 o 691 0.80 Yes No
2013BO27 O C K 2021-06-01.34784 1.000E-05 15:55:13.440 1.500E-01 0.500 F 0.185 0.438 +04° 13' 04.50" 1.000E-01 0.500 F 0.143 -0.074 20.9 R 0.70 -0.02 o 691 0.96 Yes Yes
2013BO27 O C K 2021-06-01.35616 1.000E-05 15:55:09.950 1.500E-01 0.500 F 0.185 -0.380 +04° 13' 43.60" 1.000E-01 0.500 F 0.143 -0.119 21.3 R 0.70 0.38 o 691 0.85 Yes Yes
2021JL1 O C K 2021-06-01.36525 1.000E-05 16:54:13.150 1.500E-01 0.500 F -0.195 0.875 -12° 11' 11.30" 1.000E-01 0.500 F 0.231 0.337 20.8 R 0.70 -0.57 o 691 1.90 Yes Yes
2021JL1 O C K 2021-06-01.37386 1.000E-05 16:54:13.750 1.500E-01 0.500 F -0.195 0.134 -12° 11' 25.00" 1.000E-01 0.500 F 0.231 -0.099 o 691 0.34 Yes No
2021JL1 O C K 2021-06-01.38246 1.000E-05 16:54:14.400 1.500E-01 0.500 F -0.195 0.097 -12° 11' 38.30" 1.000E-01 0.500 F 0.231 -0.176 o 691 0.41 Yes No
2005ML13 O C K 2021-06-01.44011 1.000E-05 18:31:22.770 1.500E-01 0.500 F -0.063 0.183 +15° 33' 02.90" 1.000E-01 0.500 F 0.200 0.045 20.8 R 0.70 0.27 o 691 0.38 Yes Yes
2005ML13 O C K 2021-06-01.44594 1.000E-05 18:31:22.900 1.500E-01 0.500 F -0.063 -0.103 +15° 33' 17.60" 1.000E-01 0.500 F 0.200 0.445 20.7 R 0.70 0.17 o 691 0.93 Yes Yes
2005ML13 O C K 2021-06-01.45177 1.000E-05 18:31:23.060 1.500E-01 0.500 F -0.063 0.028 +15° 33' 31.00" 1.000E-01 0.500 F 0.200 -0.446 20.3 R 0.70 -0.23 o 691 0.94 Yes Yes
2003LW2 O C K 2021-06-01.46026 1.000E-05 20:33:01.140 1.500E-01 0.500 F -0.072 0.205 -06° 03' 33.10" 1.000E-01 0.500 F 0.235 -0.174 18.4 R 0.70 0.03 o 691 0.58 Yes Yes
2003LW2 O C K 2021-06-01.46410 1.000E-05 20:32:57.460 1.500E-01 0.500 F -0.072 0.175 -06° 03' 53.10" 1.000E-01 0.500 F 0.235 -0.120 18.4 R 0.70 0.03 o 691 0.47 Yes Yes
2003LW2 O C K 2021-06-01.46794 1.000E-05 20:32:53.760 1.500E-01 0.500 F -0.072 -0.263 -06° 04' 13.30" 1.000E-01 0.500 F 0.235 -0.346 18.2 R 0.70 -0.17 o 691 0.89 Yes Yes

[1-200] [201-400] [401-600] [601-800] [801-1000] [1001-1200] [1201-1400] [1401-1600] [1601-1800] [1801-2000] [2001-2200] [2201-2400] [2401-2600] [2601-2800] [2801-3000] [3001-3200] [3201-3400] [3401-3600] [3601-3800] [3801-4000] [4001-4200] [4201-4400] [4401-4600] [4601-4800] [4801-5000] [5001-5200] [5201-5400] [5401-5600] [5601-5800] [5801-6000] [6001-6200] [6201-6400] [6401-6600] [6601-6800] [6801-7000] [7001-7200] [7201-7400] [7401-7600] [7601-7800] [7801-8000] [8001-8200] [8201-8400] [8401-8600] [8601-8800] [8801-9000] [9001-9200] [9201-9400] [9401-9600] [9601-9800] [9801-10000] [10001-10200] [10201-10400] [10401-10600] [10601-10800] [10801-11000] [11001-11200] [11201-11400] [11401-11600] [11601-11800] [11801-12000] [12001-12200] [12201-12400] [12401-12600] [12601-12800] [12801-13000] [13001-13200] [13201-13400] [13401-13600] [13601-13800] [13801-14000] [14001-14200] [14201-14400] [14401-14600] [14601-14800] [14801-15000] [15001-15200] [15201-15400] [15401-15600] [15601-15800] [15801-16000] [16001-16200] [16201-16400] [16401-16600] [16601-16800] [16801-17000] [17001-17200] [17201-17400] [17401-17600] [17601-17800] [17801-18000] [18001-18200] [18201-18400] [18401-18600] [18601-18800] [18801-19000] [19001-19200] [19201-19400] [19401-19600] [19601-19800] [19801-20000] [20001-20200] [20201-20400] [20401-20600] [20601-20800] [20801-21000] [21001-21200] [21201-21400] [21401-21600] [21601-21800] [21801-22000] [22001-22200] [22201-22400] [22401-22600] [22601-22800] [22801-23000] [23001-23200] [23201-23400] [23401-23600] [23601-23800] [23801-24000] [24001-24200] [24201-24400] [24401-24600] [24601-24800] [24801-25000] [25001-25200] [25201-25400] [25401-25600] [25601-25800] [25801-26000] [26001-26200] [26201-26400] [26401-26600] [26601-26800] [26801-27000] [27001-27200] [27201-27400] [27401-27600] [27601-27800] [27801-28000] [28001-28200] [28201-28400] [28401-28600] [28601-28800] [28801-29000] [29001-29200] [29201-29400] [29401-29600] [29601-29800] [29801-30000] [30001-30200] [30201-30400] [30401-30600] [30601-30800] [30801-31000] [31001-31200] [31201-31400] [31401-31600] [31601-31800] [31801-32000] [32001-32200] [32201-32400] [32401-32600] [32601-32800] [32801-33000] [33001-33200] [33201-33400] [33401-33600] [33601-33800] [33801-34000] [34001-34200] [34201-34400] [34401-34600] [34601-34800] [34801-35000] [35001-35200] [35201-35400] [35401-35600] [35601-35800] [35801-36000] [36001-36200] [36201-36400] [36401-36600] [36601-36800] [36801-37000] [37001-37200] [37201-37400] [37401-37600] [37601-37800] [37801-38000] [38001-38200] [38201-38400] [38401-38600] [38601-38800] [38801-39000] [39001-39200] [39201-39400] [39401-39600] [39601-39800] [39801-40000] [40001-40200] [40201-40400] [40401-40600] [40601-40800] [40801-41000] [41001-41200] [41201-41400] [41401-41600] [41601-41800] [41801-42000] [42001-42200] [42201-42400] [42401-42600] [42601-42800] [42801-43000] [43001-43200] [43201-43400] [43401-43600] [43601-43800] [43801-44000] [44001-44200] [44201-44400] [44401-44600] [44601-44800] [44801-45000] [45001-45200] [45201-45400] [45401-45600] [45601-45800] [45801-46000] [46001-46200] [46201-46400] [46401-46600] [46601-46800] [46801-47000] [47001-47200] [47201-47400] [47401-47600] [47601-47800] [47801-48000] [48001-48200] [48201-48400] [48401-48600] [48601-48800] [48801-49000] [49001-49200] [49201-49400] [49401-49600] [49601-49800] [49801-50000] [50001-50200] [50201-50388]